sensor_id;sensor_type;location;lat;lon;timestamp;pressure;altitude;pressure_sealevel;temperature;humidity
17615;BME280;8926;49.720;6.576;2024-01-15T00:00:23;98927.34;;;-1.68;85.29
17615;BME280;8926;49.720;6.576;2024-01-15T00:02:48;98928.22;;;-1.69;85.65
17615;BME280;8926;49.720;6.576;2024-01-15T00:05:13;98929.00;;;-1.65;85.66
17615;BME280;8926;49.720;6.576;2024-01-15T00:07:38;98930.63;;;-1.61;85.53
17615;BME280;8926;49.720;6.576;2024-01-15T00:10:04;98923.78;;;-1.61;85.43
17615;BME280;8926;49.720;6.576;2024-01-15T00:12:29;98928.03;;;-1.60;85.86
17615;BME280;8926;49.720;6.576;2024-01-15T00:14:54;98926.19;;;-1.55;85.67
17615;BME280;8926;49.720;6.576;2024-01-15T00:17:20;98910.78;;;-1.53;85.60
17615;BME280;8926;49.720;6.576;2024-01-15T00:19:45;98914.34;;;-1.59;85.59
17615;BME280;8926;49.720;6.576;2024-01-15T00:22:10;98910.09;;;-1.60;86.02
17615;BME280;8926;49.720;6.576;2024-01-15T00:24:35;98909.97;;;-1.55;86.06
17615;BME280;8926;49.720;6.576;2024-01-15T00:27:01;98907.31;;;-1.51;85.88
17615;BME280;8926;49.720;6.576;2024-01-15T00:29:26;98897.94;;;-1.50;86.00
17615;BME280;8926;49.720;6.576;2024-01-15T00:31:51;98891.97;;;-1.51;86.03
17615;BME280;8926;49.720;6.576;2024-01-15T00:34:16;98894.47;;;-1.48;85.91
17615;BME280;8926;49.720;6.576;2024-01-15T00:36:41;98887.66;;;-1.49;86.32
17615;BME280;8926;49.720;6.576;2024-01-15T00:39:07;98879.09;;;-1.48;86.07
17615;BME280;8926;49.720;6.576;2024-01-15T00:41:32;98878.22;;;-1.47;86.09
17615;BME280;8926;49.720;6.576;2024-01-15T00:43:57;98890.28;;;-1.52;86.30
17615;BME280;8926;49.720;6.576;2024-01-15T00:46:22;98885.03;;;-1.46;86.27
17615;BME280;8926;49.720;6.576;2024-01-15T00:48:48;98887.66;;;-1.49;86.42
17615;BME280;8926;49.720;6.576;2024-01-15T00:51:13;98887.59;;;-1.46;86.77
17615;BME280;8926;49.720;6.576;2024-01-15T00:53:38;98890.16;;;-1.46;86.76
17615;BME280;8926;49.720;6.576;2024-01-15T00:56:03;98885.84;;;-1.44;86.92
17615;BME280;8926;49.720;6.576;2024-01-15T00:58:29;98890.16;;;-1.46;86.95
17615;BME280;8926;49.720;6.576;2024-01-15T01:00:54;98879.03;;;-1.45;87.43
17615;BME280;8926;49.720;6.576;2024-01-15T01:03:20;98879.78;;;-1.40;87.23
17615;BME280;8926;49.720;6.576;2024-01-15T01:05:45;98878.09;;;-1.41;87.51
17615;BME280;8926;49.720;6.576;2024-01-15T01:08:10;98872.00;;;-1.35;87.13
17615;BME280;8926;49.720;6.576;2024-01-15T01:10:35;98865.16;;;-1.34;87.23
17615;BME280;8926;49.720;6.576;2024-01-15T01:13:01;98860.84;;;-1.32;88.00
17615;BME280;8926;49.720;6.576;2024-01-15T01:15:26;98864.00;;;-1.23;87.90
17615;BME280;8926;49.720;6.576;2024-01-15T01:17:52;98858.84;;;-1.21;87.08
17615;BME280;8926;49.720;6.576;2024-01-15T01:20:17;98858.84;;;-1.21;87.02
17615;BME280;8926;49.720;6.576;2024-01-15T01:22:42;98865.78;;;-1.26;87.50
17615;BME280;8926;49.720;6.576;2024-01-15T01:25:08;98850.41;;;-1.26;87.42
17615;BME280;8926;49.720;6.576;2024-01-15T01:27:34;98840.03;;;-1.20;86.97
17615;BME280;8926;49.720;6.576;2024-01-15T01:29:59;98831.59;;;-1.25;86.83
17615;BME280;8926;49.720;6.576;2024-01-15T01:32:25;98831.78;;;-1.31;87.52
17615;BME280;8926;49.720;6.576;2024-01-15T01:34:50;98835.34;;;-1.39;88.39
17615;BME280;8926;49.720;6.576;2024-01-15T01:37:15;98828.47;;;-1.37;87.86
17615;BME280;8926;49.720;6.576;2024-01-15T01:39:41;98828.47;;;-1.37;87.53
17615;BME280;8926;49.720;6.576;2024-01-15T01:42:06;98841.28;;;-1.37;88.13
17615;BME280;8926;49.720;6.576;2024-01-15T01:44:31;98856.63;;;-1.35;88.45
17615;BME280;8926;49.720;6.576;2024-01-15T01:46:57;98859.09;;;-1.30;87.50
17615;BME280;8926;49.720;6.576;2024-01-15T01:49:23;98840.91;;;-1.21;88.66
17615;BME280;8926;49.720;6.576;2024-01-15T01:51:49;98849.28;;;-1.13;88.61
17615;BME280;8926;49.720;6.576;2024-01-15T01:54:15;98845.72;;;-1.08;87.80
17615;BME280;8926;49.720;6.576;2024-01-15T01:56:41;98838.13;;;-1.12;87.66
17615;BME280;8926;49.720;6.576;2024-01-15T01:59:06;98839.91;;;-1.14;87.90
17615;BME280;8926;49.720;6.576;2024-01-15T02:01:32;98831.41;;;-1.16;87.82
17615;BME280;8926;49.720;6.576;2024-01-15T02:03:58;98834.72;;;-1.13;88.73
17615;BME280;8926;49.720;6.576;2024-01-15T02:06:23;98822.69;;;-1.09;87.81
17615;BME280;8926;49.720;6.576;2024-01-15T02:08:49;98826.13;;;-1.10;87.82
17615;BME280;8926;49.720;6.576;2024-01-15T02:11:15;98826.97;;;-1.10;88.31
17615;BME280;8926;49.720;6.576;2024-01-15T02:13:40;98819.31;;;-1.11;88.65
17615;BME280;8926;49.720;6.576;2024-01-15T02:16:05;98827.78;;;-1.08;89.19
17615;BME280;8926;49.720;6.576;2024-01-15T02:18:39;98835.41;;;-1.05;88.94
17615;BME280;8926;49.720;6.576;2024-01-15T02:21:04;98824.31;;;-1.05;88.22
17615;BME280;8926;49.720;6.576;2024-01-15T02:23:30;98824.31;;;-1.05;87.69
17615;BME280;8926;49.720;6.576;2024-01-15T02:25:55;98813.94;;;-1.02;88.69
17615;BME280;8926;49.720;6.576;2024-01-15T02:28:20;98825.81;;;-0.98;87.94
17615;BME280;8926;49.720;6.576;2024-01-15T02:30:45;98836.88;;;-0.96;88.65
17615;BME280;8926;49.720;6.576;2024-01-15T02:33:11;98825.59;;;-0.89;87.97
17615;BME280;8926;49.720;6.576;2024-01-15T02:35:36;98824.75;;;-0.89;88.25
17615;BME280;8926;49.720;6.576;2024-01-15T02:38:01;98815.38;;;-0.90;88.73
17615;BME280;8926;49.720;6.576;2024-01-15T02:40:27;98818.63;;;-0.84;88.15
17615;BME280;8926;49.720;6.576;2024-01-15T02:42:52;98819.47;;;-0.83;87.81
17615;BME280;8926;49.720;6.576;2024-01-15T02:45:17;98812.63;;;-0.83;87.08
17615;BME280;8926;49.720;6.576;2024-01-15T02:47:43;98810.91;;;-0.82;88.18
17615;BME280;8926;49.720;6.576;2024-01-15T02:50:08;98816.94;;;-0.85;87.24
17615;BME280;8926;49.720;6.576;2024-01-15T02:52:33;98823.75;;;-0.84;88.09
17615;BME280;8926;49.720;6.576;2024-01-15T02:54:58;98821.31;;;-0.88;88.24
17615;BME280;8926;49.720;6.576;2024-01-15T02:57:24;98818.69;;;-0.87;87.71
17615;BME280;8926;49.720;6.576;2024-01-15T02:59:49;98813.50;;;-0.84;88.92
17615;BME280;8926;49.720;6.576;2024-01-15T03:02:14;98803.25;;;-0.84;88.63
17615;BME280;8926;49.720;6.576;2024-01-15T03:04:43;98817.63;;;-0.78;88.42
17615;BME280;8926;49.720;6.576;2024-01-15T03:07:08;98824.31;;;-0.73;89.01
17615;BME280;8926;49.720;6.576;2024-01-15T03:09:33;98816.53;;;-0.70;88.50
17615;BME280;8926;49.720;6.576;2024-01-15T03:11:59;98817.34;;;-0.68;88.56
17615;BME280;8926;49.720;6.576;2024-01-15T03:14:24;98816.31;;;-0.60;87.69
17615;BME280;8926;49.720;6.576;2024-01-15T03:16:51;98812.84;;;-0.59;86.74
17615;BME280;8926;49.720;6.576;2024-01-15T03:19:16;98811.25;;;-0.63;87.12
17615;BME280;8926;49.720;6.576;2024-01-15T03:21:41;98810.38;;;-0.62;88.01
17615;BME280;8926;49.720;6.576;2024-01-15T03:24:06;98807.97;;;-0.69;87.99
17615;BME280;8926;49.720;6.576;2024-01-15T03:26:31;98795.94;;;-0.66;87.46
17615;BME280;8926;49.720;6.576;2024-01-15T03:28:57;98790.94;;;-0.71;88.17
17615;BME280;8926;49.720;6.576;2024-01-15T03:31:22;98796.97;;;-0.74;88.03
17615;BME280;8926;49.720;6.576;2024-01-15T03:33:47;98792.66;;;-0.72;88.21
17615;BME280;8926;49.720;6.576;2024-01-15T03:36:12;98795.22;;;-0.72;89.00
17615;BME280;8926;49.720;6.576;2024-01-15T03:38:40;98789.22;;;-0.71;88.11
17615;BME280;8926;49.720;6.576;2024-01-15T03:41:06;98785.59;;;-0.63;89.35
17615;BME280;8926;49.720;6.576;2024-01-15T03:43:31;98777.66;;;-0.54;88.36
17615;BME280;8926;49.720;6.576;2024-01-15T03:45:56;98776.88;;;-0.56;88.74
17615;BME280;8926;49.720;6.576;2024-01-15T03:48:22;98773.50;;;-0.58;88.30
17615;BME280;8926;49.720;6.576;2024-01-15T03:50:47;98768.44;;;-0.61;88.05
17615;BME280;8926;49.720;6.576;2024-01-15T03:53:12;98766.78;;;-0.62;87.61
17615;BME280;8926;49.720;6.576;2024-01-15T03:55:37;98770.06;;;-0.57;88.07
17615;BME280;8926;49.720;6.576;2024-01-15T03:58:02;98759.81;;;-0.57;87.98
17615;BME280;8926;49.720;6.576;2024-01-15T04:00:28;98758.88;;;-0.55;88.28
17615;BME280;8926;49.720;6.576;2024-01-15T04:02:53;98752.88;;;-0.54;88.74
17615;BME280;8926;49.720;6.576;2024-01-15T04:05:19;98747.69;;;-0.52;89.06
17615;BME280;8926;49.720;6.576;2024-01-15T04:07:44;98742.44;;;-0.49;88.14
17615;BME280;8926;49.720;6.576;2024-01-15T04:10:09;98738.91;;;-0.45;88.08
17615;BME280;8926;49.720;6.576;2024-01-15T04:12:34;98745.72;;;-0.44;88.81
17615;BME280;8926;49.720;6.576;2024-01-15T04:14:59;98750.97;;;-0.49;88.67
17615;BME280;8926;49.720;6.576;2024-01-15T04:17:25;98745.72;;;-0.44;88.19
17615;BME280;8926;49.720;6.576;2024-01-15T04:19:50;98754.19;;;-0.41;89.08
17615;BME280;8926;49.720;6.576;2024-01-15T04:22:15;98748.94;;;-0.36;88.56
17615;BME280;8926;49.720;6.576;2024-01-15T04:24:40;98740.34;;;-0.35;88.21
17615;BME280;8926;49.720;6.576;2024-01-15T04:27:06;98738.56;;;-0.33;87.64
17615;BME280;8926;49.720;6.576;2024-01-15T04:29:31;98731.72;;;-0.32;87.37
17615;BME280;8926;49.720;6.576;2024-01-15T04:31:57;98730.00;;;-0.32;87.62
17615;BME280;8926;49.720;6.576;2024-01-15T04:34:22;98731.69;;;-0.31;87.09
17615;BME280;8926;49.720;6.576;2024-01-15T04:36:47;98724.94;;;-0.35;88.86
17615;BME280;8926;49.720;6.576;2024-01-15T04:39:12;98718.84;;;-0.31;88.47
17615;BME280;8926;49.720;6.576;2024-01-15T04:41:37;98717.97;;;-0.30;88.26
17615;BME280;8926;49.720;6.576;2024-01-15T04:44:03;98704.44;;;-0.35;88.40
17615;BME280;8926;49.720;6.576;2024-01-15T04:46:28;98717.09;;;-0.29;88.01
17615;BME280;8926;49.720;6.576;2024-01-15T04:48:53;98718.06;;;-0.33;87.90
17615;BME280;8926;49.720;6.576;2024-01-15T04:51:18;98714.59;;;-0.32;88.34
17615;BME280;8926;49.720;6.576;2024-01-15T04:53:44;98711.25;;;-0.34;88.93
17615;BME280;8926;49.720;6.576;2024-01-15T04:56:09;98706.84;;;-0.30;88.25
17615;BME280;8926;49.720;6.576;2024-01-15T04:58:34;98706.03;;;-0.31;88.48
17615;BME280;8926;49.720;6.576;2024-01-15T05:00:59;98699.13;;;-0.29;88.69
17615;BME280;8926;49.720;6.576;2024-01-15T05:03:25;98695.94;;;-0.37;88.88
17615;BME280;8926;49.720;6.576;2024-01-15T05:05:50;98694.16;;;-0.35;88.36
17615;BME280;8926;49.720;6.576;2024-01-15T05:08:15;98690.72;;;-0.34;88.93
17615;BME280;8926;49.720;6.576;2024-01-15T05:10:40;98690.63;;;-0.31;88.41
17615;BME280;8926;49.720;6.576;2024-01-15T05:13:05;98684.00;;;-0.38;89.06
17615;BME280;8926;49.720;6.576;2024-01-15T05:15:31;98689.13;;;-0.38;88.46
17615;BME280;8926;49.720;6.576;2024-01-15T05:17:56;98691.72;;;-0.40;89.51
17615;BME280;8926;49.720;6.576;2024-01-15T05:20:21;98693.38;;;-0.37;89.14
17615;BME280;8926;49.720;6.576;2024-01-15T05:22:46;98678.03;;;-0.39;89.75
17615;BME280;8926;49.720;6.576;2024-01-15T05:25:12;98678.78;;;-0.35;90.09
17615;BME280;8926;49.720;6.576;2024-01-15T05:27:37;98678.59;;;-0.29;89.39
17615;BME280;8926;49.720;6.576;2024-01-15T05:30:02;98681.03;;;-0.26;89.65
17615;BME280;8926;49.720;6.576;2024-01-15T05:32:28;98682.69;;;-0.23;89.06
17615;BME280;8926;49.720;6.576;2024-01-15T05:34:54;98665.59;;;-0.24;89.90
17615;BME280;8926;49.720;6.576;2024-01-15T05:37:19;98670.69;;;-0.23;89.92
17615;BME280;8926;49.720;6.576;2024-01-15T05:39:44;98662.91;;;-0.20;89.72
17615;BME280;8926;49.720;6.576;2024-01-15T05:42:10;98661.97;;;-0.17;88.53
17615;BME280;8926;49.720;6.576;2024-01-15T05:44:35;98661.97;;;-0.17;89.26
17615;BME280;8926;49.720;6.576;2024-01-15T05:47:00;98657.66;;;-0.17;88.73
17615;BME280;8926;49.720;6.576;2024-01-15T05:49:25;98654.31;;;-0.19;89.15
17615;BME280;8926;49.720;6.576;2024-01-15T05:51:50;98654.31;;;-0.19;89.23
17615;BME280;8926;49.720;6.576;2024-01-15T05:54:17;98647.41;;;-0.17;89.30
17615;BME280;8926;49.720;6.576;2024-01-15T05:56:43;98655.91;;;-0.15;88.53
17615;BME280;8926;49.720;6.576;2024-01-15T05:59:08;98654.13;;;-0.13;89.09
17615;BME280;8926;49.720;6.576;2024-01-15T06:01:33;98649.88;;;-0.14;89.10
17615;BME280;8926;49.720;6.576;2024-01-15T06:03:58;98649.00;;;-0.13;89.89
17615;BME280;8926;49.720;6.576;2024-01-15T06:06:23;98651.47;;;-0.10;89.57
17615;BME280;8926;49.720;6.576;2024-01-15T06:08:49;98648.81;;;-0.07;88.75
17615;BME280;8926;49.720;6.576;2024-01-15T06:11:14;98653.94;;;-0.07;90.15
17615;BME280;8926;49.720;6.576;2024-01-15T06:13:39;98654.72;;;-0.05;89.62
17615;BME280;8926;49.720;6.576;2024-01-15T06:16:11;98647.88;;;-0.04;89.81
17615;BME280;8926;49.720;6.576;2024-01-15T06:18:37;98647.81;;;-0.03;88.46
17615;BME280;8926;49.720;6.576;2024-01-15T06:21:02;98654.81;;;-0.08;88.63
17615;BME280;8926;49.720;6.576;2024-01-15T06:23:27;98653.09;;;-0.07;89.78
17615;BME280;8926;49.720;6.576;2024-01-15T06:25:53;98660.53;;;0.00;90.10
17615;BME280;8926;49.720;6.576;2024-01-15T06:28:18;98654.19;;;0.12;89.07
17615;BME280;8926;49.720;6.576;2024-01-15T06:30:43;98639.63;;;0.13;90.84
17615;BME280;8926;49.720;6.576;2024-01-15T06:33:08;98639.53;;;0.16;89.90
17615;BME280;8926;49.720;6.576;2024-01-15T06:35:33;98647.31;;;0.13;89.19
17615;BME280;8926;49.720;6.576;2024-01-15T06:37:59;98637.00;;;0.14;88.75
17615;BME280;8926;49.720;6.576;2024-01-15T06:40:24;98629.72;;;0.00;89.42
17615;BME280;8926;49.720;6.576;2024-01-15T06:42:49;98640.00;;;0.00;89.67
17615;BME280;8926;49.720;6.576;2024-01-15T06:45:15;98645.97;;;0.01;89.84
17615;BME280;8926;49.720;6.576;2024-01-15T06:47:40;98633.94;;;0.03;89.91
17615;BME280;8926;49.720;6.576;2024-01-15T06:50:07;98641.50;;;0.08;90.76
17615;BME280;8926;49.720;6.576;2024-01-15T06:52:32;98637.94;;;0.12;89.82
17615;BME280;8926;49.720;6.576;2024-01-15T06:54:57;98633.75;;;0.09;90.22
17615;BME280;8926;49.720;6.576;2024-01-15T06:57:22;98635.38;;;0.12;89.64
17615;BME280;8926;49.720;6.576;2024-01-15T06:59:48;98634.59;;;0.10;88.95
17615;BME280;8926;49.720;6.576;2024-01-15T07:02:13;98632.91;;;0.09;89.23
17615;BME280;8926;49.720;6.576;2024-01-15T07:04:38;98619.19;;;0.10;89.69
17615;BME280;8926;49.720;6.576;2024-01-15T07:07:03;98619.97;;;0.12;88.80
17615;BME280;8926;49.720;6.576;2024-01-15T07:09:28;98619.97;;;0.12;89.93
17615;BME280;8926;49.720;6.576;2024-01-15T07:11:54;98621.69;;;0.11;89.39
17615;BME280;8926;49.720;6.576;2024-01-15T07:14:19;98631.88;;;0.14;89.33
17615;BME280;8926;49.720;6.576;2024-01-15T07:16:44;98632.91;;;0.09;89.71
17615;BME280;8926;49.720;6.576;2024-01-15T07:19:09;98634.50;;;0.13;88.51
17615;BME280;8926;49.720;6.576;2024-01-15T07:21:34;98637.28;;;0.05;88.72
17615;BME280;8926;49.720;6.576;2024-01-15T07:24:00;98636.34;;;0.08;89.54
17615;BME280;8926;49.720;6.576;2024-01-15T07:26:25;98629.53;;;0.07;89.62
17615;BME280;8926;49.720;6.576;2024-01-15T07:28:51;98622.63;;;0.09;88.53
17615;BME280;8926;49.720;6.576;2024-01-15T07:31:16;98619.28;;;0.07;88.76
17615;BME280;8926;49.720;6.576;2024-01-15T07:33:42;98628.50;;;0.12;89.27
17615;BME280;8926;49.720;6.576;2024-01-15T07:36:07;98622.81;;;0.03;89.81
17615;BME280;8926;49.720;6.576;2024-01-15T07:38:32;98629.63;;;0.04;88.49
17615;BME280;8926;49.720;6.576;2024-01-15T07:40:57;98627.06;;;0.04;88.70
17615;BME280;8926;49.720;6.576;2024-01-15T07:43:23;98639.91;;;0.04;89.83
17615;BME280;8926;49.720;6.576;2024-01-15T07:45:48;98634.69;;;0.07;88.75
17615;BME280;8926;49.720;6.576;2024-01-15T07:48:13;98641.69;;;0.02;89.10
17615;BME280;8926;49.720;6.576;2024-01-15T07:50:39;98629.63;;;0.04;90.09
17615;BME280;8926;49.720;6.576;2024-01-15T07:53:04;98638.97;;;0.06;89.04
17615;BME280;8926;49.720;6.576;2024-01-15T07:55:30;98639.81;;;0.07;90.44
17615;BME280;8926;49.720;6.576;2024-01-15T07:57:55;98634.59;;;0.10;90.29
17615;BME280;8926;49.720;6.576;2024-01-15T08:00:23;98643.06;;;0.12;90.17
17615;BME280;8926;49.720;6.576;2024-01-15T08:02:49;98641.50;;;0.08;90.30
17615;BME280;8926;49.720;6.576;2024-01-15T08:05:14;98643.16;;;0.09;90.41
17615;BME280;8926;49.720;6.576;2024-01-15T08:07:39;98646.53;;;0.11;90.56
17615;BME280;8926;49.720;6.576;2024-01-15T08:10:04;98644.66;;;0.16;88.85
17615;BME280;8926;49.720;6.576;2024-01-15T08:12:30;98648.97;;;0.15;89.74
17615;BME280;8926;49.720;6.576;2024-01-15T08:14:55;98646.53;;;0.11;90.11
17615;BME280;8926;49.720;6.576;2024-01-15T08:17:20;98649.16;;;0.09;89.43
17615;BME280;8926;49.720;6.576;2024-01-15T08:19:45;98649.06;;;0.12;89.40
17615;BME280;8926;49.720;6.576;2024-01-15T08:22:11;98648.03;;;0.18;89.59
17615;BME280;8926;49.720;6.576;2024-01-15T08:24:36;98643.06;;;0.12;89.83
17615;BME280;8926;49.720;6.576;2024-01-15T08:27:01;98639.66;;;0.11;90.25
17615;BME280;8926;49.720;6.576;2024-01-15T08:29:27;98645.50;;;0.16;88.96
17615;BME280;8926;49.720;6.576;2024-01-15T08:31:52;98651.47;;;0.17;89.42
17615;BME280;8926;49.720;6.576;2024-01-15T08:34:17;98648.03;;;0.18;89.58
17615;BME280;8926;49.720;6.576;2024-01-15T08:36:43;98642.97;;;0.15;89.70
17615;BME280;8926;49.720;6.576;2024-01-15T08:39:08;98643.06;;;0.12;89.05
17615;BME280;8926;49.720;6.576;2024-01-15T08:41:34;98643.06;;;0.12;90.07
17615;BME280;8926;49.720;6.576;2024-01-15T08:43:59;98643.06;;;0.12;89.45
17615;BME280;8926;49.720;6.576;2024-01-15T08:46:24;98643.06;;;0.12;89.27
17615;BME280;8926;49.720;6.576;2024-01-15T08:48:50;98645.69;;;0.10;90.45
17615;BME280;8926;49.720;6.576;2024-01-15T08:51:16;98632.81;;;0.12;89.26
17615;BME280;8926;49.720;6.576;2024-01-15T08:53:41;98646.53;;;0.11;89.30
17615;BME280;8926;49.720;6.576;2024-01-15T08:56:06;98640.59;;;0.09;90.09
17615;BME280;8926;49.720;6.576;2024-01-15T08:58:31;98644.81;;;0.11;89.73
17615;BME280;8926;49.720;6.576;2024-01-15T09:00:56;98647.31;;;0.13;90.01
17615;BME280;8926;49.720;6.576;2024-01-15T09:03:22;98637.84;;;0.15;91.33
17615;BME280;8926;49.720;6.576;2024-01-15T09:05:47;98649.59;;;0.22;90.97
17615;BME280;8926;49.720;6.576;2024-01-15T09:08:14;98642.69;;;0.24;89.51
17615;BME280;8926;49.720;6.576;2024-01-15T09:10:40;98644.47;;;0.22;90.25
17615;BME280;8926;49.720;6.576;2024-01-15T09:13:05;98653.81;;;0.24;90.99
17615;BME280;8926;49.720;6.576;2024-01-15T09:15:31;98652.75;;;0.30;90.59
17615;BME280;8926;49.720;6.576;2024-01-15T09:17:56;98655.59;;;0.22;90.94
17615;BME280;8926;49.720;6.576;2024-01-15T09:20:23;98657.09;;;0.28;90.80
17615;BME280;8926;49.720;6.576;2024-01-15T09:22:50;98651.94;;;0.28;90.86
17615;BME280;8926;49.720;6.576;2024-01-15T09:25:16;98652.75;;;0.30;90.18
17615;BME280;8926;49.720;6.576;2024-01-15T09:27:41;98649.38;;;0.28;90.22
17615;BME280;8926;49.720;6.576;2024-01-15T09:30:06;98652.75;;;0.30;90.95
17615;BME280;8926;49.720;6.576;2024-01-15T09:32:31;98654.31;;;0.34;90.34
17615;BME280;8926;49.720;6.576;2024-01-15T09:34:58;98656.00;;;0.35;90.46
17615;BME280;8926;49.720;6.576;2024-01-15T09:37:23;98650.66;;;0.41;90.38
17615;BME280;8926;49.720;6.576;2024-01-15T09:39:48;98648.88;;;0.43;89.35
17615;BME280;8926;49.720;6.576;2024-01-15T09:42:14;98649.72;;;0.44;89.52
17615;BME280;8926;49.720;6.576;2024-01-15T09:44:40;98652.34;;;0.42;89.71
17615;BME280;8926;49.720;6.576;2024-01-15T09:47:06;98654.03;;;0.43;90.33
17615;BME280;8926;49.720;6.576;2024-01-15T09:49:31;98652.25;;;0.45;90.08
17615;BME280;8926;49.720;6.576;2024-01-15T09:51:57;98654.91;;;0.42;90.20
17615;BME280;8926;49.720;6.576;2024-01-15T09:54:23;98657.38;;;0.45;90.71
17615;BME280;8926;49.720;6.576;2024-01-15T09:56:48;98659.94;;;0.45;89.92
17615;BME280;8926;49.720;6.576;2024-01-15T09:59:17;98653.09;;;0.46;90.40
17615;BME280;8926;49.720;6.576;2024-01-15T10:01:43;98658.13;;;0.49;89.83
17615;BME280;8926;49.720;6.576;2024-01-15T10:04:09;98653.78;;;0.51;89.37
17615;BME280;8926;49.720;6.576;2024-01-15T10:06:34;98652.59;;;0.59;89.39
17615;BME280;8926;49.720;6.576;2024-01-15T10:09:00;98648.31;;;0.60;89.73
17615;BME280;8926;49.720;6.576;2024-01-15T10:11:25;98645.47;;;0.67;89.54
17615;BME280;8926;49.720;6.576;2024-01-15T10:13:51;98647.94;;;0.71;89.07
17615;BME280;8926;49.720;6.576;2024-01-15T10:16:18;98645.16;;;0.77;88.90
17615;BME280;8926;49.720;6.576;2024-01-15T10:18:43;98638.91;;;0.84;88.47
17615;BME280;8926;49.720;6.576;2024-01-15T10:21:08;98642.59;;;0.77;88.43
17615;BME280;8926;49.720;6.576;2024-01-15T10:23:34;98634.69;;;0.81;88.91
17615;BME280;8926;49.720;6.576;2024-01-15T10:25:59;98636.28;;;0.85;88.84
17615;BME280;8926;49.720;6.576;2024-01-15T10:28:29;98625.06;;;0.88;88.01
17615;BME280;8926;49.720;6.576;2024-01-15T10:30:55;98627.63;;;0.88;88.16
17615;BME280;8926;49.720;6.576;2024-01-15T10:33:24;98621.59;;;0.89;88.43
17615;BME280;8926;49.720;6.576;2024-01-15T10:35:50;98626.63;;;0.92;88.87
17615;BME280;8926;49.720;6.576;2024-01-15T10:38:18;98618.03;;;0.93;89.18
17615;BME280;8926;49.720;6.576;2024-01-15T10:40:47;98626.72;;;0.89;88.78
17615;BME280;8926;49.720;6.576;2024-01-15T10:43:12;98619.81;;;0.91;88.47
17615;BME280;8926;49.720;6.576;2024-01-15T10:45:37;98616.34;;;0.92;88.91
17615;BME280;8926;49.720;6.576;2024-01-15T10:48:02;98616.22;;;0.95;89.22
17615;BME280;8926;49.720;6.576;2024-01-15T10:50:28;98605.84;;;0.98;89.52
17615;BME280;8926;49.720;6.576;2024-01-15T10:52:54;98603.81;;;1.06;89.08
17615;BME280;8926;49.720;6.576;2024-01-15T10:55:20;98603.53;;;1.14;88.31
17615;BME280;8926;49.720;6.576;2024-01-15T10:57:46;98593.09;;;1.18;88.44
17615;BME280;8926;49.720;6.576;2024-01-15T11:00:13;98598.22;;;1.18;89.20
17615;BME280;8926;49.720;6.576;2024-01-15T11:02:40;98604.81;;;1.25;88.66
17615;BME280;8926;49.720;6.576;2024-01-15T11:05:05;98603.56;;;1.35;88.48
17615;BME280;8926;49.720;6.576;2024-01-15T11:07:31;98597.41;;;1.40;88.48
17615;BME280;8926;49.720;6.576;2024-01-15T11:09:56;98604.13;;;1.44;87.91
17615;BME280;8926;49.720;6.576;2024-01-15T11:12:24;98600.41;;;1.51;88.32
17615;BME280;8926;49.720;6.576;2024-01-15T11:14:49;98603.50;;;1.59;87.73
17615;BME280;8926;49.720;6.576;2024-01-15T11:17:15;98599.94;;;1.63;87.48
17615;BME280;8926;49.720;6.576;2024-01-15T11:22:07;98598.75;;;1.72;88.31
17615;BME280;8926;49.720;6.576;2024-01-15T11:24:41;98598.38;;;1.81;87.24
17615;BME280;8926;49.720;6.576;2024-01-15T11:27:07;98604.38;;;1.81;87.27
17615;BME280;8926;49.720;6.576;2024-01-15T11:29:36;98594.31;;;1.75;87.99
17615;BME280;8926;49.720;6.576;2024-01-15T11:37:13;98596.09;;;1.73;88.27
17615;BME280;8926;49.720;6.576;2024-01-15T11:42:04;98590.56;;;1.82;87.37
17615;BME280;8926;49.720;6.576;2024-01-15T11:44:29;98582.09;;;1.80;88.09
17615;BME280;8926;49.720;6.576;2024-01-15T11:46:58;98584.69;;;2.00;88.32
17615;BME280;8926;49.720;6.576;2024-01-15T11:49:42;98586.19;;;2.26;87.84
17615;BME280;8926;49.720;6.576;2024-01-15T11:52:10;98584.06;;;2.36;87.63
17615;BME280;8926;49.720;6.576;2024-01-15T11:54:37;98581.22;;;2.42;87.06
17615;BME280;8926;49.720;6.576;2024-01-15T11:57:04;98582.97;;;2.42;86.84
17615;BME280;8926;49.720;6.576;2024-01-15T11:59:34;98588.19;;;2.40;86.91
17615;BME280;8926;49.720;6.576;2024-01-15T12:01:59;98587.19;;;2.63;86.94
17615;BME280;8926;49.720;6.576;2024-01-15T12:04:25;98577.16;;;3.33;86.63
17615;BME280;8926;49.720;6.576;2024-01-15T12:06:51;98574.69;;;4.20;84.87
17615;BME280;8926;49.720;6.576;2024-01-15T12:09:18;98573.50;;;4.27;82.08
17615;BME280;8926;49.720;6.576;2024-01-15T12:11:45;98571.81;;;4.08;80.40
17615;BME280;8926;49.720;6.576;2024-01-15T12:14:12;98580.63;;;4.04;81.20
17615;BME280;8926;49.720;6.576;2024-01-15T12:16:37;98569.31;;;4.74;81.33
17615;BME280;8926;49.720;6.576;2024-01-15T12:19:03;98573.34;;;5.44;79.43
17615;BME280;8926;49.720;6.576;2024-01-15T12:21:28;98565.91;;;5.84;78.02
17615;BME280;8926;49.720;6.576;2024-01-15T12:23:53;98574.56;;;6.15;75.37
17615;BME280;8926;49.720;6.576;2024-01-15T12:26:20;98567.22;;;6.37;75.56
17615;BME280;8926;49.720;6.576;2024-01-15T12:28:46;98569.09;;;6.49;76.94
17615;BME280;8926;49.720;6.576;2024-01-15T12:31:11;98568.38;;;6.61;73.88
17615;BME280;8926;49.720;6.576;2024-01-15T12:33:36;98573.94;;;6.69;73.82
17615;BME280;8926;49.720;6.576;2024-01-15T12:36:01;98583.00;;;6.62;72.90
17615;BME280;8926;49.720;6.576;2024-01-15T12:38:28;98593.38;;;6.62;73.06
17615;BME280;8926;49.720;6.576;2024-01-15T12:40:53;98597.94;;;6.29;74.71
17615;BME280;8926;49.720;6.576;2024-01-15T12:43:18;98588.16;;;5.88;75.19
17615;BME280;8926;49.720;6.576;2024-01-15T12:45:44;98585.16;;;5.49;75.05
17615;BME280;8926;49.720;6.576;2024-01-15T12:48:09;98596.78;;;5.10;74.97
17615;BME280;8926;49.720;6.576;2024-01-15T12:50:34;98596.22;;;4.88;76.16
17615;BME280;8926;49.720;6.576;2024-01-15T12:53:01;98603.19;;;4.53;75.46
17615;BME280;8926;49.720;6.576;2024-01-15T12:55:26;98612.94;;;4.30;76.47
17615;BME280;8926;49.720;6.576;2024-01-15T12:57:51;98604.94;;;4.00;76.24
17615;BME280;8926;49.720;6.576;2024-01-15T13:00:20;98609.94;;;3.86;76.57
17615;BME280;8926;49.720;6.576;2024-01-15T13:02:45;98607.38;;;3.67;76.22
17615;BME280;8926;49.720;6.576;2024-01-15T13:05:11;98614.81;;;3.56;77.87
17615;BME280;8926;49.720;6.576;2024-01-15T13:07:36;98624.56;;;3.50;77.62
17615;BME280;8926;49.720;6.576;2024-01-15T13:10:02;98623.81;;;3.48;78.35
17615;BME280;8926;49.720;6.576;2024-01-15T13:12:27;98625.81;;;3.41;77.80
17615;BME280;8926;49.720;6.576;2024-01-15T13:14:52;98631.34;;;3.33;76.15
17615;BME280;8926;49.720;6.576;2024-01-15T13:17:18;98633.81;;;3.36;77.16